Airfield :
LOGIN :

Register | Disclaimer

   EN    FR    IT 

 










Legend :    VFR   Marginal VFR   IFR   Intensive IFR   Very Intensive IFR
Visi :
Ceiling :
>= 8 km
>= 3000ft
5 to 8 km
1000 to 3000 ft
1500m to 5 km
500 to 1000 ft
800 to 1500m
200 to 500 ft
< 800m
< 200 ft
Symbols :   Thunderstorms  Fog  Heavy snow  Heavy precipitations  Wind > 20 kt
SIGMETs :     Misc.  Thunderstorms  Icing  Turbulence  Mountain Waves  Volcanic Ashes







- Airport Elevation : 1247 ft
- IATA code : PRG


LKPR - Praha Ruzyne

CURRENT METAR :
  • 200900Z 26015KT 9999 FEW015 04/01 Q1016 NOSIG

EXPIRED METARs :
  • 200830Z 25014KT 9999 FEW033 03/01 Q1016 NOSIG
  • 200800Z 25013KT 9999 FEW033 03/00 Q1016 NOSIG
  • 200730Z 25013KT 9999 FEW023 SCT032 03/00 Q1016 NOSIG
  • 200700Z 25011KT 9999 FEW023 BKN031 02/00 Q1016 NOSIG
  • 200630Z 26011KT 9999 FEW025 SCT031 02/01 Q1015 NOSIG

TAF TAF LKPR
Valid from the 20 at 06:00 until the 21 at 12:00 UTC


200500Z 2006/2112 25016KT 9999 BKN025
TEMPO 2006/2100 26018G28KT
TEMPO 2006/2020 4000 SHRASN BKN012
BECMG 2020/2022 7000 RASN BKN012
TEMPO 2022/2106 4000 RASN BKN007
PROB30
TEMPO 2022/2104 2000 SN BKN004
BECMG 2106/2108 9999 BKN018
TEMPO 2108/2112 26020G32KT RA
No reported NOTAMs for that airfield.



MET'MAP, your aeronautical weather chart ! - Copyright ORBIFLY December 2007 - Disclaimer

ORBIFLY MET'MAP TEAM :

Programming & Development : Alexandra Zaïnal
Concept & Development : Baudouin d'Aumeries
Co-Development & Prog : Marc-Olivier Méhu
Technical & hardware support : Manuel Goepfert

Contact : metmap@orbifly.com




SOURCES & CREDITS :

   NOAA